Santa Ana, CA (92707)

7:23 PM PST on March 05, 2015 (GMT -0800)
South Santa Ana | Change Station
CLOSE
Current Station
Personal Weather Station
Location: Santa Ana, CA
Elevation: 78 ft
Nearby Weather Stations
Active Advisory: Wind Advisory

Elev 78 ft 33.72 °N, 117.86 °W | Updated 24 seconds ago

Clear
Clear
62.8 °F
Feels Like 62.8 °F
N
0.0
Wind Variable Wind from NNW
Gusts 2.0 mph

Today
High -- | Low -- °F
--% Chance of Precip.
Yesterday
High -- | Low -- °F
Precip. -- in
6:15 AM 5:51 PM
Full, 100% visible
Pressure 30.16 in
Visibility 10.0 miles
Clouds Clear
Dew Point 36 °F
Humidity 37%
Rainfall in
Snow Depth Not available.
UV 0 out of 12
Pollen 9.10 out of 12
Air Quality Not available.
Flu Activity Not available.
METAR KSNA 060253Z 00000KT 10SM CLR 21/01 A3016 RMK AO2 SLP213 T02060011 53003

More Conditions Fewer Conditions

Pressure 30.16 in
Visibility 10.0 miles
Clouds Clear
Dew Point 36 °F
Humidity 37%
Rainfall in
Snow Depth Not available.
UV 0 out of 12
Pollen 9.10 out of 12
Air Quality Not available.
Flu Activity Not available.
METAR KSNA 060253Z 00000KT 10SM CLR 21/01 A3016 RMK AO2 SLP213 T02060011 53003

More Conditions Fewer Conditions

10-Day Weather Forecast

Almanac

Astronomy

Mar. 05, 2015 Rise Set
Actual Time
Civil Twilight
Nautical Twilight
Astronomical Twilight
Moon
Length of Visible Light
Length of Day
Tomorrow will be .
, % of the Moon is Illuminated

Today's Extremes

State Highs State Lows

Community

WunderPhotos

Upload Photos

1,803,164 photos uploaded!

WunderBlogs® & News

Nearby

Air Quality

  Air Quality AQ Index Pollutant
Not available.

Snow Depth

Station Depth Elevation

Earthquake Activity

City Distance Mag. Time & Date
Minimum magnitude displayed is 2.5.

Coastal Water Temperatures

Place Temperature

Nearby Weather Stations

Wind Advisory
Statement as of 1:37 PM PST on March 05, 2015

... Wind Advisory in effect from 7 PM this evening to 4 PM PST
Friday...

The National Weather Service in San Diego has issued a Wind
Advisory... which is in effect from 7 PM this evening to 4 PM PST
Friday.

* Winds... northeast to east at 20 to 30 mph with gusts to 50
mph... locally higher.

* Timing... this evening through Friday afternoon.

* Locations... inland Orange County... the inland Empire... San
Diego County valleys.

* Impacts... strong winds will make driving difficult for high
profile vehicles.

* Outlook... offshore winds will gradually diminish Friday evening
through the weekend... though remain somewhat gusty.

Precautionary/preparedness actions...

A Wind Advisory means that winds of 35 mph are expected. Winds
this strong can make driving difficult... especially for high
profile vehicles. Use extra caution.



23/jjt